Time;durP1;ratioP1;P1;durP2;ratioP2;P2;SDS_P1;SDS_P2;PMS_P1;PMS_P2;Temp;Humidity;BMP_temperature;BMP_pressure;BME280_temperature;BME280_humidity;BME280_pressure;Samples;Min_cycle;Max_cycle;Signal;HPM_P1;HPM_P2
2020/12/14 00:01:39;;;;;;;8.68;3.33;;;6.40;99.90;;;;;;5095178;28;20024;-69
2020/12/14 00:04:05;;;;;;;6.97;3.33;;;6.30;99.90;;;;;;5096240;28;20093;-69
2020/12/14 00:06:31;;;;;;;10.43;3.30;;;6.30;99.90;;;;;;5094712;28;20024;-69
2020/12/14 00:08:57;;;;;;;8.93;3.42;;;6.30;99.90;;;;;;5096192;28;20032;-69
2020/12/14 00:11:23;;;;;;;8.95;3.90;;;6.30;99.90;;;;;;5094703;28;20059;-69
2020/12/14 00:13:48;;;;;;;10.85;4.72;;;6.20;99.90;;;;;;5077756;28;20055;-69
2020/12/14 00:16:14;;;;;;;9.25;3.72;;;6.20;99.90;;;;;;5094510;28;20164;-69
2020/12/14 00:18:39;;;;;;;10.00;3.63;;;6.20;99.90;;;;;;5096007;28;20102;-69
2020/12/14 00:21:05;;;;;;;7.25;3.45;;;6.10;99.90;;;;;;5096214;28;20020;-69
2020/12/14 00:23:30;;;;;;;12.90;3.88;;;6.10;99.90;;;;;;5094394;28;20086;-69
2020/12/14 00:25:56;;;;;;;9.70;3.95;;;6.10;99.90;;;;;;5095356;28;20044;-69
2020/12/14 00:28:21;;;;;;;10.77;3.45;;;6.00;99.90;;;;;;5094309;28;20054;-69
2020/12/14 00:30:47;;;;;;;8.80;3.28;;;6.00;99.90;;;;;;5095757;28;20020;-69
2020/12/14 00:33:13;;;;;;;6.53;3.13;;;6.10;99.90;;;;;;5094180;28;20157;-69
2020/12/14 00:35:38;;;;;;;8.55;3.25;;;6.10;99.90;;;;;;5095961;28;20058;-70
2020/12/14 00:38:04;;;;;;;9.57;3.28;;;6.10;99.90;;;;;;5095918;28;20031;-69
2020/12/14 00:40:29;;;;;;;11.43;3.03;;;6.20;99.90;;;;;;5095881;28;20453;-69
2020/12/14 00:42:56;;;;;;;10.55;3.05;;;6.20;99.90;;;;;;5094019;28;20027;-69
2020/12/14 00:45:22;;;;;;;10.95;3.03;;;6.30;99.90;;;;;;5095385;28;20062;-69
2020/12/14 00:47:47;;;;;;;5.50;2.50;;;6.30;99.90;;;;;;5093267;28;20024;-69
2020/12/14 00:50:13;;;;;;;9.70;3.28;;;6.40;99.90;;;;;;5095662;28;20058;-69
2020/12/14 00:52:38;;;;;;;7.00;2.90;;;6.40;99.90;;;;;;5094496;28;20389;-69
2020/12/14 00:55:04;;;;;;;10.77;3.17;;;6.40;99.90;;;;;;5094128;28;20039;-69
2020/12/14 00:57:30;;;;;;;5.38;2.65;;;6.40;99.90;;;;;;5095533;28;20036;-69
2020/12/14 00:59:57;;;;;;;8.25;2.70;;;6.40;99.90;;;;;;5094925;28;20040;-69
2020/12/14 01:02:23;;;;;;;7.25;3.00;;;6.40;99.90;;;;;;5093621;28;20112;-69
2020/12/14 01:04:50;;;;;;;5.72;3.03;;;6.40;99.90;;;;;;5094788;28;20020;-69
2020/12/14 01:07:15;;;;;;;7.00;2.85;;;6.50;99.90;;;;;;5095356;28;20022;-69
2020/12/14 01:09:41;;;;;;;7.80;2.70;;;6.50;99.90;;;;;;5093485;28;20050;-69
2020/12/14 01:12:07;;;;;;;7.45;2.45;;;6.60;99.90;;;;;;5094037;28;20162;-69
2020/12/14 01:14:32;;;;;;;4.10;2.42;;;6.70;99.90;;;;;;5093485;28;20032;-70
2020/12/14 01:16:58;;;;;;;7.03;2.60;;;6.70;99.90;;;;;;5093376;28;20036;-69
2020/12/14 01:19:23;;;;;;;5.82;2.45;;;6.70;99.90;;;;;;5093856;28;20024;-70
2020/12/14 01:21:49;;;;;;;8.10;2.70;;;6.80;99.90;;;;;;5093927;28;20093;-69
2020/12/14 01:24:14;;;;;;;6.63;2.60;;;6.80;99.90;;;;;;5093280;28;20111;-69
2020/12/14 01:26:40;;;;;;;6.72;2.50;;;6.80;99.90;;;;;;5094990;28;20020;-70
2020/12/14 01:29:06;;;;;;;6.95;2.67;;;6.80;99.90;;;;;;5093490;28;20027;-69
2020/12/14 01:31:31;;;;;;;5.82;2.63;;;6.90;99.90;;;;;;5076279;28;20028;-69
2020/12/14 01:33:57;;;;;;;6.07;2.45;;;6.80;99.90;;;;;;5094319;28;20032;-69
2020/12/14 01:36:22;;;;;;;7.78;2.42;;;6.80;99.90;;;;;;5092993;28;20102;-69
2020/12/14 01:38:48;;;;;;;5.80;2.35;;;6.80;99.90;;;;;;5093626;28;20484;-69
2020/12/14 01:41:13;;;;;;;6.40;2.45;;;6.90;99.90;;;;;;5094702;28;20474;-69
2020/12/14 01:43:39;;;;;;;10.13;2.85;;;6.90;99.90;;;;;;5094711;28;20024;-69
2020/12/14 01:46:04;;;;;;;7.65;2.33;;;6.90;99.90;;;;;;5093398;28;20401;-70
2020/12/14 01:48:30;;;;;;;7.90;2.50;;;6.90;99.90;;;;;;5092800;28;20030;-69
2020/12/14 01:50:56;;;;;;;10.90;2.70;;;6.90;99.90;;;;;;5092831;28;20025;-69
2020/12/14 01:53:22;;;;;;;8.85;2.53;;;6.90;99.90;;;;;;5094320;28;20358;-69
2020/12/14 01:55:53;;;;;;;4.88;2.17;;;6.90;99.90;;;;;;5094521;28;20016;-69
2020/12/14 01:58:19;;;;;;;7.60;2.40;;;6.90;99.90;;;;;;5094536;28;20027;-69
2020/12/14 02:00:44;;;;;;;8.05;2.22;;;6.80;99.90;;;;;;5092385;28;20024;-69
2020/12/14 02:03:10;;;;;;;6.00;2.45;;;6.90;99.90;;;;;;5092948;28;20028;-69
2020/12/14 02:05:35;;;;;;;5.47;2.40;;;6.80;99.90;;;;;;5075666;28;20028;-69
2020/12/14 02:08:05;;;;;;;4.93;2.38;;;6.90;99.90;;;;;;5092493;28;20032;-69
2020/12/14 02:10:31;;;;;;;6.70;2.00;;;6.90;99.90;;;;;;5094315;28;20020;-69
2020/12/14 02:12:57;;;;;;;6.55;2.10;;;6.90;99.90;;;;;;5092567;28;20027;-69
2020/12/14 02:15:22;;;;;;;5.35;2.08;;;6.90;99.90;;;;;;5092398;28;20024;-69
2020/12/14 02:17:48;;;;;;;5.47;2.08;;;7.00;99.90;;;;;;5092965;28;20034;-69
2020/12/14 02:20:13;;;;;;;3.70;1.80;;;7.00;99.90;;;;;;5092410;28;20123;-69
2020/12/14 02:22:39;;;;;;;6.25;1.98;;;7.10;99.90;;;;;;5092377;28;20119;-69
2020/12/14 02:25:07;;;;;;;4.85;1.60;;;7.10;99.90;;;;;;5093467;28;20405;-69
2020/12/14 02:27:35;;;;;;;3.63;1.85;;;7.20;99.90;;;;;;5093831;28;20530;-69
2020/12/14 02:30:01;;;;;;;7.40;2.10;;;7.20;99.90;;;;;;5092953;28;20489;-69
2020/12/14 02:32:27;;;;;;;9.13;1.85;;;7.20;99.90;;;;;;5094052;28;20020;-69
2020/12/14 02:34:54;;;;;;;6.13;1.70;;;7.20;99.90;;;;;;5093759;28;20054;-69
2020/12/14 02:37:22;;;;;;;4.95;1.80;;;7.20;99.90;;;;;;5093031;28;20024;-69
2020/12/14 02:39:48;;;;;;;3.85;1.77;;;7.20;99.90;;;;;;5094004;28;20355;-69
2020/12/14 02:42:17;;;;;;;4.65;1.80;;;7.30;99.90;;;;;;5092303;28;20393;-69
2020/12/14 02:44:44;;;;;;;2.92;1.58;;;7.30;99.90;;;;;;5092481;28;20481;-69
2020/12/14 02:47:10;;;;;;;8.00;2.13;;;7.30;99.90;;;;;;5092195;28;20427;-69
2020/12/14 02:49:36;;;;;;;5.00;1.70;;;7.40;99.90;;;;;;5092948;28;20512;-69
2020/12/14 02:52:04;;;;;;;6.45;1.98;;;7.30;99.90;;;;;;5093901;28;20028;-69
2020/12/14 02:54:29;;;;;;;4.57;1.80;;;7.30;99.90;;;;;;5093616;28;20027;-69
2020/12/14 02:56:55;;;;;;;4.68;1.80;;;7.30;99.90;;;;;;5093873;28;20024;-69
2020/12/14 02:59:21;;;;;;;6.20;2.10;;;7.30;99.90;;;;;;5092410;28;20107;-69
2020/12/14 03:01:48;;;;;;;7.60;1.65;;;7.30;99.90;;;;;;5093279;28;20021;-69
2020/12/14 03:04:15;;;;;;;4.97;1.45;;;7.30;99.90;;;;;;5091930;28;20047;-70
2020/12/14 03:06:42;;;;;;;8.85;1.92;;;7.30;99.90;;;;;;5075138;28;20016;-69
2020/12/14 03:09:08;;;;;;;4.35;1.88;;;7.30;99.90;;;;;;5091964;28;20059;-69
2020/12/14 03:11:33;;;;;;;6.30;1.77;;;7.20;99.90;;;;;;5095192;28;20086;-69
2020/12/14 03:13:59;;;;;;;4.40;2.10;;;7.30;99.90;;;;;;5096136;28;20024;-69
2020/12/14 03:16:25;;;;;;;7.57;2.13;;;7.20;99.90;;;;;;5096069;28;20488;-69
2020/12/14 03:18:50;;;;;;;6.20;2.20;;;7.20;99.90;;;;;;5097486;28;20480;-69
2020/12/14 03:21:16;;;;;;;6.70;1.92;;;7.10;99.90;;;;;;5078756;28;20488;-69
2020/12/14 03:23:41;;;;;;;4.38;1.90;;;7.00;99.90;;;;;;5097395;28;20054;-69
2020/12/14 03:26:07;;;;;;;3.70;2.08;;;7.00;99.90;;;;;;5078433;28;20069;-69
2020/12/14 03:28:32;;;;;;;5.95;2.22;;;6.90;99.90;;;;;;5096315;28;20031;-69
2020/12/14 03:30:58;;;;;;;4.82;1.58;;;7.00;99.90;;;;;;5096263;28;20505;-69
2020/12/14 03:33:23;;;;;;;6.25;2.08;;;6.90;99.90;;;;;;5097192;28;20034;-69
2020/12/14 03:35:49;;;;;;;6.75;2.22;;;6.90;99.90;;;;;;5095987;28;20026;-69
2020/12/14 03:38:15;;;;;;;4.18;1.88;;;6.80;99.90;;;;;;5078479;28;20020;-69
2020/12/14 03:40:41;;;;;;;5.20;1.85;;;6.80;99.90;;;;;;5095245;28;20058;-69
2020/12/14 03:43:07;;;;;;;6.78;1.60;;;6.80;99.90;;;;;;5095211;28;20123;-69
2020/12/14 03:45:32;;;;;;;4.80;1.92;;;6.90;99.90;;;;;;5095719;28;20103;-69
2020/12/14 03:47:58;;;;;;;5.82;1.88;;;6.80;99.90;;;;;;5096932;28;20047;-69
2020/12/14 03:50:24;;;;;;;5.90;1.90;;;6.80;99.90;;;;;;5095450;28;20066;-69
2020/12/14 03:52:49;;;;;;;6.20;2.28;;;6.90;99.90;;;;;;5096289;28;20034;-69
2020/12/14 03:55:15;;;;;;;8.95;2.35;;;6.90;99.90;;;;;;5095656;28;20073;-69
2020/12/14 03:57:41;;;;;;;6.10;1.75;;;6.90;99.90;;;;;;5096731;28;20023;-69
2020/12/14 04:00:07;;;;;;;5.85;2.10;;;7.00;99.90;;;;;;5095508;28;20035;-69
2020/12/14 04:02:32;;;;;;;7.38;1.98;;;7.10;99.90;;;;;;5095159;28;20035;-69
2020/12/14 04:04:58;;;;;;;5.60;1.88;;;7.10;99.90;;;;;;5096466;28;20024;-69
2020/12/14 04:07:24;;;;;;;4.13;1.63;;;7.20;99.90;;;;;;5094706;28;20027;-69
2020/12/14 04:09:49;;;;;;;6.88;2.72;;;7.30;99.90;;;;;;5096499;28;20069;-69
2020/12/14 04:12:15;;;;;;;5.55;1.88;;;7.20;99.90;;;;;;5078303;28;20024;-69
2020/12/14 04:14:40;;;;;;;3.50;2.00;;;7.30;99.90;;;;;;5094897;28;20473;-69
2020/12/14 04:17:06;;;;;;;4.47;1.90;;;7.30;99.90;;;;;;5077708;28;20034;-69
2020/12/14 04:19:31;;;;;;;3.95;1.88;;;7.30;99.90;;;;;;5096325;28;20484;-69
2020/12/14 04:22:00;;;;;;;6.25;1.83;;;7.30;99.90;;;;;;5094985;28;20531;-69
2020/12/14 04:24:26;;;;;;;4.95;2.20;;;7.30;99.90;;;;;;5095600;28;20089;-69
2020/12/14 04:26:53;;;;;;;3.47;2.00;;;7.40;99.90;;;;;;5094732;28;20028;-69
2020/12/14 04:29:18;;;;;;;7.43;2.00;;;7.30;99.90;;;;;;5094992;28;20043;-69
2020/12/14 04:31:44;;;;;;;4.28;2.15;;;7.30;99.90;;;;;;5096058;28;20078;-69
2020/12/14 04:34:10;;;;;;;6.30;1.98;;;7.30;99.90;;;;;;5095767;28;20026;-69
2020/12/14 04:36:35;;;;;;;9.75;1.98;;;7.30;99.90;;;;;;5095995;28;20020;-69
2020/12/14 04:39:01;;;;;;;8.55;2.00;;;7.30;99.90;;;;;;5077308;28;20028;-70
2020/12/14 04:41:27;;;;;;;5.38;2.00;;;7.40;99.90;;;;;;5095648;28;20072;-70
2020/12/14 04:43:52;;;;;;;4.10;1.88;;;7.40;99.90;;;;;;5094700;28;20013;-69
2020/12/14 04:46:20;;;;;;;4.75;2.08;;;7.40;99.90;;;;;;5094453;28;20456;-69
2020/12/14 04:48:46;;;;;;;6.55;2.13;;;7.40;99.90;;;;;;5094597;28;20016;-69
2020/12/14 04:51:11;;;;;;;7.43;2.15;;;7.50;99.90;;;;;;5094445;28;20020;-69
2020/12/14 04:53:41;;;;;;;6.05;2.28;;;7.60;99.90;;;;;;5095372;28;20057;-69
2020/12/14 04:56:09;;;;;;;8.63;2.13;;;7.60;99.90;;;;;;5094174;28;20016;-69
2020/12/14 04:58:36;;;;;;;7.00;2.08;;;7.60;99.90;;;;;;5093659;28;20066;-69
2020/12/14 05:01:03;;;;;;;5.13;2.13;;;7.60;99.90;;;;;;5094824;28;20530;-69
2020/12/14 05:03:29;;;;;;;3.70;1.80;;;7.60;99.90;;;;;;5095474;28;20032;-69
2020/12/14 05:05:56;;;;;;;7.45;2.10;;;7.70;99.90;;;;;;5095331;28;20034;-69
2020/12/14 05:08:29;;;;;;;6.95;1.88;;;7.70;99.90;;;;;;5095365;28;20034;-69
2020/12/14 05:10:56;;;;;;;9.40;2.40;;;7.70;99.90;;;;;;5076903;28;20024;-69
2020/12/14 05:13:28;;;;;;;3.72;2.22;;;7.80;99.90;;;;;;5095003;28;20021;-69
2020/12/14 05:15:55;;;;;;;2.25;1.80;;;7.80;99.90;;;;;;5093760;28;20067;-69
2020/12/14 05:18:23;;;;;;;3.25;1.80;;;7.90;99.90;;;;;;5095158;28;20025;-69
2020/12/14 05:21:00;;;;;;;4.95;2.38;;;7.80;99.90;;;;;;5076679;28;20081;-69
2020/12/14 05:23:27;;;;;;;4.88;1.75;;;7.90;99.90;;;;;;5093637;28;20028;-69
2020/12/14 05:26:09;;;;;;;5.25;2.00;;;7.90;99.90;;;;;;5076354;28;20067;-69
2020/12/14 05:28:36;;;;;;;5.68;2.35;;;7.90;99.90;;;;;;5076412;28;20027;-69
2020/12/14 05:31:02;;;;;;;2.95;1.98;;;8.00;99.90;;;;;;5093531;28;20073;-69
2020/12/14 05:33:30;;;;;;;4.88;2.08;;;8.00;99.90;;;;;;5094270;28;20408;-69
2020/12/14 05:35:55;;;;;;;3.47;2.00;;;8.00;99.90;;;;;;5094175;28;20043;-69
2020/12/14 05:38:30;;;;;;;6.45;1.83;;;8.00;99.90;;;;;;5092996;28;20461;-69
2020/12/14 05:41:00;;;;;;;4.50;1.60;;;8.10;99.90;;;;;;5093319;28;20034;-69
2020/12/14 05:43:28;;;;;;;5.22;2.53;;;8.10;99.90;;;;;;5093263;28;20024;-69
2020/12/14 05:45:55;;;;;;;6.65;2.47;;;8.10;99.90;;;;;;5093602;28;20058;-69
2020/12/14 05:48:24;;;;;;;6.28;2.00;;;8.10;99.90;;;;;;5076088;28;20028;-69
2020/12/14 05:50:52;;;;;;;6.90;2.10;;;8.10;99.90;;;;;;5092767;28;20024;-69
2020/12/14 05:53:20;;;;;;;6.00;2.40;;;8.10;99.90;;;;;;5094021;28;20063;-69
2020/12/14 05:55:46;;;;;;;4.53;2.25;;;8.10;99.90;;;;;;5092990;28;20020;-69
2020/12/14 05:58:15;;;;;;;5.18;2.17;;;8.10;99.90;;;;;;5094179;28;20028;-69
2020/12/14 06:00:51;;;;;;;4.07;1.80;;;8.20;99.90;;;;;;5093284;28;20038;-69
2020/12/14 06:03:17;;;;;;;3.60;1.98;;;8.10;99.90;;;;;;5094431;28;20056;-69
2020/12/14 06:05:46;;;;;;;3.35;1.80;;;8.10;99.90;;;;;;5092512;28;20481;-69
2020/12/14 06:08:37;;;;;;;2.88;2.05;;;8.20;99.90;;;;;;5094039;28;20460;-69
2020/12/14 06:11:04;;;;;;;9.02;2.60;;;8.30;99.90;;;;;;5092605;28;20028;-69
2020/12/14 06:13:31;;;;;;;6.47;2.10;;;8.20;99.90;;;;;;5093705;28;20405;-69
2020/12/14 06:16:00;;;;;;;7.03;2.33;;;8.30;99.90;;;;;;5075835;28;20023;-69
2020/12/14 06:18:33;;;;;;;10.25;2.20;;;8.30;99.90;;;;;;5092517;28;20548;-69
2020/12/14 06:20:59;;;;;;;4.13;2.10;;;8.30;99.90;;;;;;5092799;28;20039;-69
2020/12/14 06:23:28;;;;;;;5.75;2.00;;;8.20;99.90;;;;;;5092600;28;20546;-69
2020/12/14 06:25:54;;;;;;;6.40;1.88;;;8.30;99.90;;;;;;5093420;28;20040;-69
2020/12/14 06:28:35;;;;;;;3.20;1.60;;;8.30;99.90;;;;;;5093869;28;20028;-69
2020/12/14 06:31:01;;;;;;;3.50;2.05;;;8.30;99.90;;;;;;5092487;28;20085;-68
2020/12/14 06:33:42;;;;;;;4.28;1.88;;;8.30;99.90;;;;;;5099882;28;20119;-70
2020/12/14 06:36:20;;;;;;;3.50;1.98;;;8.20;99.90;;;;;;5095640;28;20027;-68
2020/12/14 06:38:48;;;;;;;6.60;1.90;;;8.20;99.90;;;;;;5113908;28;20054;-67
2020/12/14 06:41:17;;;;;;;6.80;2.28;;;8.30;99.90;;;;;;5114350;28;20069;-68
2020/12/14 06:43:44;;;;;;;5.88;2.10;;;8.20;99.90;;;;;;5091917;28;20028;-68
2020/12/14 06:46:10;;;;;;;5.22;2.20;;;8.20;99.90;;;;;;5094768;28;20086;-68
2020/12/14 06:48:45;;;;;;;10.57;2.60;;;8.10;99.90;;;;;;5097686;28;20021;-67
2020/12/14 06:51:13;;;;;;;7.18;2.13;;;8.10;99.90;;;;;;5097829;28;20099;-68
2020/12/14 06:53:45;;;;;;;8.55;2.28;;;8.00;99.90;;;;;;5096122;28;20111;-68
2020/12/14 06:56:13;;;;;;;4.32;2.38;;;8.00;99.90;;;;;;5097601;28;20461;-68
2020/12/14 06:58:41;;;;;;;10.80;2.53;;;8.00;99.90;;;;;;5097325;28;20161;-69
2020/12/14 07:01:36;;;;;;;4.13;2.15;;;8.00;99.90;;;;;;5095931;28;20069;-69
2020/12/14 07:06:47;;;;;;;4.82;2.40;;;8.10;99.90;;;;;;5111790;27;20396;-66
2020/12/14 07:09:29;;;;;;;4.15;2.17;;;8.10;99.90;;;;;;5109643;28;20024;-67
2020/12/14 07:12:16;;;;;;;8.45;2.47;;;8.10;99.90;;;;;;5111796;28;20043;-67
2020/12/14 07:14:48;;;;;;;4.07;2.33;;;8.00;99.90;;;;;;5109904;28;20032;-67
2020/12/14 07:17:20;;;;;;;5.82;2.60;;;8.00;99.90;;;;;;5111182;28;20407;-66
2020/12/14 07:19:47;;;;;;;6.50;2.40;;;8.00;99.90;;;;;;5111232;28;20081;-67
2020/12/14 07:22:16;;;;;;;3.45;2.40;;;8.00;99.90;;;;;;5092745;28;20373;-67
2020/12/14 07:24:43;;;;;;;6.53;2.42;;;8.10;99.90;;;;;;5111364;28;20023;-65
2020/12/14 07:27:09;;;;;;;5.53;2.42;;;8.10;99.90;;;;;;5125239;28;20076;-69
2020/12/14 07:29:36;;;;;;;4.90;2.20;;;8.10;99.90;;;;;;5130000;28;20019;-68
2020/12/14 07:32:04;;;;;;;10.18;2.70;;;8.10;99.90;;;;;;5129941;28;20027;-69
2020/12/14 07:34:29;;;;;;;7.97;2.70;;;8.10;99.90;;;;;;5109106;28;20106;-68
2020/12/14 07:36:55;;;;;;;5.72;2.40;;;8.10;99.90;;;;;;5089905;28;20489;-69
2020/12/14 07:39:21;;;;;;;6.05;2.35;;;8.20;99.90;;;;;;5109598;28;20020;-67
2020/12/14 07:41:47;;;;;;;5.20;2.67;;;8.20;99.90;;;;;;5111139;28;20461;-70
2020/12/14 07:44:13;;;;;;;6.72;2.90;;;8.20;99.90;;;;;;5102945;28;20051;-69
2020/12/14 07:46:38;;;;;;;5.10;2.88;;;8.20;99.90;;;;;;5107655;28;20520;-68
2020/12/14 07:49:07;;;;;;;4.47;2.60;;;8.30;99.90;;;;;;5108190;28;20016;-67
2020/12/14 07:51:35;;;;;;;3.53;2.25;;;8.20;99.90;;;;;;5109298;28;20465;-67
2020/12/14 07:54:07;;;;;;;5.55;2.90;;;8.30;99.90;;;;;;5109548;28;20142;-66
2020/12/14 07:56:42;;;;;;;4.03;2.35;;;8.30;99.90;;;;;;5108106;28;20081;-67
2020/12/14 07:59:25;;;;;;;6.07;2.67;;;8.40;99.90;;;;;;5109596;28;20034;-66
2020/12/14 08:01:52;;;;;;;5.07;2.63;;;8.40;99.90;;;;;;5109975;28;20024;-66
2020/12/14 08:04:21;;;;;;;4.60;2.50;;;8.50;99.90;;;;;;5108071;28;20089;-68
2020/12/14 08:06:48;;;;;;;3.65;2.47;;;8.50;99.90;;;;;;5108254;28;20107;-68
2020/12/14 08:09:17;;;;;;;4.93;2.88;;;8.60;99.90;;;;;;5107829;28;20020;-68
2020/12/14 08:11:44;;;;;;;5.25;2.53;;;8.70;99.90;;;;;;5107649;28;20051;-68
2020/12/14 08:14:10;;;;;;;6.07;2.42;;;8.80;99.90;;;;;;5107933;28;20047;-68
2020/12/14 08:16:35;;;;;;;6.25;2.80;;;8.80;99.90;;;;;;5098399;28;20499;-67
2020/12/14 08:19:01;;;;;;;9.32;3.03;;;8.80;99.90;;;;;;5092055;28;20106;-68
2020/12/14 08:21:26;;;;;;;5.43;2.45;;;8.80;99.90;;;;;;5095082;28;20418;-67
2020/12/14 08:23:54;;;;;;;7.00;2.55;;;8.90;99.90;;;;;;5090211;28;20032;-66
2020/12/14 08:26:28;;;;;;;7.13;2.80;;;8.80;99.90;;;;;;5083214;28;20459;-67
2020/12/14 08:28:59;;;;;;;5.15;2.60;;;8.90;99.90;;;;;;5082858;28;20026;-68
2020/12/14 08:31:24;;;;;;;6.97;2.40;;;8.90;99.90;;;;;;5085345;28;20024;-67
2020/12/14 08:33:52;;;;;;;6.57;2.70;;;8.90;99.90;;;;;;5085817;28;20039;-66
2020/12/14 08:36:17;;;;;;;4.82;2.28;;;8.90;99.90;;;;;;5085051;28;20024;-69
2020/12/14 08:38:44;;;;;;;5.20;2.85;;;9.00;99.90;;;;;;5086947;28;20034;-68
2020/12/14 08:41:11;;;;;;;5.53;2.70;;;9.00;99.90;;;;;;5069707;28;20020;-68
2020/12/14 08:43:37;;;;;;;5.03;3.00;;;9.10;99.90;;;;;;5085833;28;20454;-67
2020/12/14 08:46:14;;;;;;;4.35;2.88;;;9.10;99.90;;;;;;5085452;28;20024;-67
2020/12/14 08:48:54;;;;;;;5.22;2.90;;;9.10;99.90;;;;;;5086146;28;20028;-69
2020/12/14 08:51:24;;;;;;;5.07;2.88;;;9.30;99.90;;;;;;5084800;28;20028;-69
2020/12/14 08:53:52;;;;;;;6.63;3.08;;;9.30;99.90;;;;;;5086994;28;20055;-69
2020/12/14 08:56:21;;;;;;;5.63;3.05;;;9.40;99.90;;;;;;5084868;28;20517;-69
2020/12/14 08:58:57;;;;;;;4.97;3.15;;;9.40;99.90;;;;;;5086258;28;20035;-70
2020/12/14 09:01:25;;;;;;;4.82;2.35;;;9.40;99.90;;;;;;5083272;28;20103;-69
2020/12/14 09:03:57;;;;;;;4.68;2.70;;;9.50;99.90;;;;;;5085658;28;20020;-69
2020/12/14 09:06:27;;;;;;;4.13;2.50;;;9.50;99.90;;;;;;5085037;28;20036;-68
2020/12/14 09:08:59;;;;;;;6.80;2.63;;;9.60;99.90;;;;;;5085251;28;20128;-68
2020/12/14 09:11:28;;;;;;;5.28;2.47;;;9.60;99.90;;;;;;5084064;28;20028;-69
2020/12/14 09:13:55;;;;;;;4.43;2.70;;;9.60;99.90;;;;;;5085085;28;20023;-69
2020/12/14 09:16:21;;;;;;;4.60;2.50;;;9.60;99.90;;;;;;5084124;28;20024;-68
2020/12/14 09:18:47;;;;;;;4.55;2.17;;;9.60;99.90;;;;;;5086393;28;20043;-67
2020/12/14 09:21:12;;;;;;;3.35;2.40;;;9.60;99.90;;;;;;5084463;28;20023;-68
2020/12/14 09:23:38;;;;;;;6.60;3.25;;;9.60;99.90;;;;;;5067941;28;21002;-69
2020/12/14 09:26:05;;;;;;;6.47;2.90;;;9.50;99.90;;;;;;5085815;28;20109;-69
2020/12/14 09:28:34;;;;;;;5.55;2.85;;;9.50;99.90;;;;;;5084944;28;20070;-68
2020/12/14 09:31:00;;;;;;;6.90;2.60;;;9.30;99.90;;;;;;5083105;28;20381;-67
2020/12/14 09:33:26;;;;;;;7.45;3.45;;;9.30;99.90;;;;;;5084293;28;20637;-68
2020/12/14 09:35:52;;;;;;;7.20;3.13;;;9.30;99.90;;;;;;5085664;28;20016;-68
2020/12/14 09:38:18;;;;;;;5.75;3.42;;;9.20;99.90;;;;;;5084294;28;20016;-68
2020/12/14 09:40:43;;;;;;;4.80;3.20;;;9.10;99.90;;;;;;5084855;28;20385;-68
2020/12/14 09:43:09;;;;;;;7.47;3.85;;;9.00;99.90;;;;;;5085910;28;20035;-67
2020/12/14 09:45:34;;;;;;;10.40;4.80;;;8.90;99.90;;;;;;5085577;28;20124;-68
2020/12/14 09:48:00;;;;;;;10.30;5.35;;;8.80;99.90;;;;;;5084280;28;20036;-69
2020/12/14 09:50:27;;;;;;;11.93;5.53;;;8.80;99.90;;;;;;5089689;28;20426;-69
2020/12/14 09:52:52;;;;;;;8.00;5.10;;;8.70;99.90;;;;;;5091845;28;20031;-68
2020/12/14 09:55:18;;;;;;;11.32;5.25;;;8.70;99.90;;;;;;5091473;28;20032;-68
2020/12/14 09:57:43;;;;;;;12.48;5.45;;;8.70;99.90;;;;;;5093499;28;20036;-68
2020/12/14 10:00:09;;;;;;;7.40;4.57;;;8.70;99.90;;;;;;5093373;28;20032;-68
2020/12/14 10:02:35;;;;;;;6.78;4.53;;;8.60;99.90;;;;;;5092424;28;20036;-68
2020/12/14 10:05:01;;;;;;;7.05;4.70;;;8.70;99.90;;;;;;5091746;28;20096;-68
2020/12/14 10:07:26;;;;;;;9.75;4.60;;;8.70;99.90;;;;;;5075455;28;20024;-68
2020/12/14 10:09:52;;;;;;;9.73;5.25;;;8.70;99.90;;;;;;5091745;28;20039;-68
2020/12/14 10:12:17;;;;;;;7.63;4.38;;;8.70;99.90;;;;;;5091150;28;20026;-68
2020/12/14 10:14:43;;;;;;;10.93;5.15;;;8.80;99.90;;;;;;5075272;28;20107;-68
2020/12/14 10:17:09;;;;;;;9.60;5.25;;;8.80;99.90;;;;;;5093799;28;20384;-66
2020/12/14 10:19:35;;;;;;;8.80;5.13;;;8.90;99.90;;;;;;5093484;28;20020;-68
2020/12/14 10:22:01;;;;;;;9.88;4.80;;;8.90;99.90;;;;;;5092456;28;20093;-68
2020/12/14 10:24:26;;;;;;;9.85;4.45;;;8.90;99.90;;;;;;5091932;28;20477;-68
2020/12/14 10:26:52;;;;;;;7.00;4.97;;;8.90;99.90;;;;;;5092064;28;20107;-65
2020/12/14 10:29:18;;;;;;;7.75;4.82;;;9.00;99.90;;;;;;5075176;28;20553;-68
2020/12/14 10:31:44;;;;;;;9.57;4.60;;;9.00;99.90;;;;;;5092423;28;20103;-67
2020/12/14 10:34:11;;;;;;;6.60;5.10;;;9.10;99.90;;;;;;5093489;28;20098;-69
2020/12/14 10:36:37;;;;;;;8.18;4.60;;;9.20;99.90;;;;;;5093611;28;20020;-69
2020/12/14 10:39:03;;;;;;;9.95;4.85;;;9.30;99.90;;;;;;5092973;28;20073;-69
2020/12/14 10:41:30;;;;;;;10.15;5.80;;;9.30;99.90;;;;;;5093018;28;20039;-69
2020/12/14 10:43:56;;;;;;;8.45;5.70;;;9.30;99.90;;;;;;5091135;28;20039;-68
2020/12/14 10:46:25;;;;;;;11.45;4.78;;;9.40;99.90;;;;;;5091910;28;20032;-69
2020/12/14 10:48:51;;;;;;;10.18;4.90;;;9.40;99.90;;;;;;5065027;28;20035;-69
2020/12/14 10:51:16;;;;;;;7.60;5.03;;;9.40;99.90;;;;;;5092670;28;20036;-69
2020/12/14 10:53:42;;;;;;;5.40;4.18;;;9.40;99.90;;;;;;5091663;28;20028;-68
2020/12/14 10:56:07;;;;;;;8.80;5.20;;;9.40;99.90;;;;;;5092752;28;20028;-69
2020/12/14 10:58:33;;;;;;;9.88;4.85;;;9.40;99.90;;;;;;5092203;28;20027;-69
2020/12/14 11:00:58;;;;;;;7.13;4.07;;;9.50;99.90;;;;;;5072607;28;20075;-69
2020/12/14 11:03:25;;;;;;;6.47;4.65;;;9.50;99.90;;;;;;5090671;28;20070;-69
2020/12/14 11:05:53;;;;;;;5.43;3.83;;;9.60;99.90;;;;;;5092408;28;20044;-69
2020/12/14 11:08:19;;;;;;;6.80;4.15;;;9.60;99.90;;;;;;5091853;28;20031;-69
2020/12/14 11:10:46;;;;;;;4.45;3.42;;;9.60;99.90;;;;;;5091415;28;20051;-69
2020/12/14 11:13:11;;;;;;;5.38;3.20;;;9.60;99.90;;;;;;5090936;28;20334;-69
2020/12/14 11:15:37;;;;;;;8.90;4.65;;;9.60;99.90;;;;;;5075189;28;20023;-69
2020/12/14 11:18:02;;;;;;;7.65;4.07;;;9.60;99.90;;;;;;5073813;28;20527;-68
2020/12/14 11:20:28;;;;;;;6.35;3.85;;;9.60;99.90;;;;;;5099339;28;20024;-68
2020/12/14 11:22:54;;;;;;;4.00;3.30;;;9.70;99.90;;;;;;5093285;28;20029;-68
2020/12/14 11:25:19;;;;;;;9.25;3.47;;;9.80;99.90;;;;;;5110032;28;20032;-68
2020/12/14 11:27:45;;;;;;;3.72;3.30;;;9.80;99.90;;;;;;5100346;28;20468;-68
2020/12/14 11:30:11;;;;;;;5.80;3.47;;;9.90;99.90;;;;;;5091749;28;20052;-68
2020/12/14 11:32:36;;;;;;;5.70;3.10;;;10.00;99.90;;;;;;5092782;28;20097;-68
2020/12/14 11:35:03;;;;;;;4.38;3.15;;;10.10;99.90;;;;;;5091942;28;20035;-68
2020/12/14 11:37:28;;;;;;;4.57;3.15;;;10.20;99.90;;;;;;5092828;28;20026;-68
2020/12/14 11:39:54;;;;;;;4.90;2.83;;;10.20;99.90;;;;;;5092725;28;20020;-67
2020/12/14 11:42:20;;;;;;;5.30;2.75;;;10.30;99.90;;;;;;5092889;28;20028;-68
2020/12/14 11:44:45;;;;;;;4.68;2.78;;;10.40;99.90;;;;;;5091927;28;20473;-67
2020/12/14 11:47:11;;;;;;;4.75;2.75;;;10.40;99.90;;;;;;5091564;28;20024;-68
2020/12/14 11:49:36;;;;;;;5.25;2.63;;;10.40;99.90;;;;;;5092533;28;20024;-67
2020/12/14 11:52:02;;;;;;;4.78;2.80;;;10.40;99.90;;;;;;5092771;28;20032;-67
2020/12/14 11:54:29;;;;;;;4.03;2.75;;;10.40;99.90;;;;;;5096367;28;20109;-70
2020/12/14 11:56:55;;;;;;;6.28;2.78;;;10.60;99.90;;;;;;5095469;28;20453;-68
2020/12/14 11:59:21;;;;;;;7.25;3.10;;;10.60;99.90;;;;;;5096086;28;20054;-68
2020/12/14 12:01:47;;;;;;;4.47;2.40;;;10.60;99.90;;;;;;5096293;28;20016;-68
2020/12/14 12:04:12;;;;;;;4.60;2.47;;;10.60;99.90;;;;;;5096028;28;20074;-68
2020/12/14 12:06:38;;;;;;;4.70;2.83;;;10.60;99.90;;;;;;5076220;28;20481;-68
2020/12/14 12:09:04;;;;;;;6.47;3.00;;;10.60;99.90;;;;;;5093101;28;20059;-68
2020/12/14 12:11:33;;;;;;;3.60;2.70;;;10.60;99.90;;;;;;5094677;28;20358;-68
2020/12/14 12:13:58;;;;;;;6.40;2.70;;;10.60;99.90;;;;;;5095279;28;20023;-67
2020/12/14 12:16:24;;;;;;;4.38;2.95;;;10.60;99.90;;;;;;5095606;28;20377;-67
2020/12/14 12:18:50;;;;;;;4.82;2.60;;;10.60;99.90;;;;;;5094875;28;20085;-66
2020/12/14 12:21:16;;;;;;;4.07;2.78;;;10.60;99.90;;;;;;5095272;28;20032;-69
2020/12/14 12:23:43;;;;;;;5.50;2.75;;;10.60;99.90;;;;;;5094739;28;20039;-69
2020/12/14 12:26:08;;;;;;;4.18;2.92;;;10.70;99.90;;;;;;5094496;28;20059;-69
2020/12/14 12:28:34;;;;;;;6.45;2.70;;;10.60;99.90;;;;;;5095327;28;20082;-69
2020/12/14 12:31:00;;;;;;;4.93;2.85;;;10.60;99.90;;;;;;5095228;28;20031;-69
2020/12/14 12:33:25;;;;;;;3.78;2.88;;;10.60;99.90;;;;;;5077215;28;20632;-69
2020/12/14 12:35:51;;;;;;;4.32;2.58;;;10.70;99.90;;;;;;5095187;28;20035;-69
2020/12/14 12:38:16;;;;;;;5.20;2.60;;;10.70;99.90;;;;;;5095974;28;20020;-70
2020/12/14 12:40:42;;;;;;;4.35;3.05;;;10.70;99.90;;;;;;5094286;28;20081;-69
2020/12/14 12:43:08;;;;;;;4.22;2.67;;;10.70;99.90;;;;;;5094660;28;20472;-69
2020/12/14 12:45:33;;;;;;;3.95;2.63;;;10.80;99.90;;;;;;5095730;28;20049;-69
2020/12/14 12:47:59;;;;;;;3.75;2.25;;;10.80;99.90;;;;;;5094927;28;20106;-69
2020/12/14 12:50:25;;;;;;;5.40;3.08;;;10.80;99.90;;;;;;5093713;28;20413;-69
2020/12/14 12:52:50;;;;;;;7.47;3.42;;;10.80;99.90;;;;;;5093889;28;20024;-69
2020/12/14 12:55:16;;;;;;;5.13;2.50;;;10.80;99.90;;;;;;5093953;28;20104;-69
2020/12/14 12:57:41;;;;;;;3.50;2.20;;;10.80;99.90;;;;;;5094272;28;20036;-69